Time;durP1;ratioP1;P1;durP2;ratioP2;P2;SDS_P1;SDS_P2;PMS_P1;PMS_P2;Temp;Humidity;BMP_temperature;BMP_pressure;BME280_temperature;BME280_humidity;BME280_pressure;Samples;Min_cycle;Max_cycle;Signal;HPM_P1;HPM_P2
2021/01/27 00:01:36;;;;;;;66.78;37.75;;;;;;;;;;5071700;28;20055;-72
2021/01/27 00:04:02;;;;;;;60.42;35.00;;;;;;;;;;5072854;28;20477;-72
2021/01/27 00:06:29;;;;;;;65.28;36.80;;;;;;;;;;5060759;28;20072;-72
2021/01/27 00:08:55;;;;;;;70.07;40.70;;;;;;;;;;5055869;28;20045;-72
2021/01/27 00:11:22;;;;;;;65.68;38.58;;;;;;;;;;5070012;28;20045;-72
2021/01/27 00:13:48;;;;;;;75.00;42.88;;;;;;;;;;5076838;28;20032;-73
2021/01/27 00:16:14;;;;;;;66.43;39.38;;;;;;;;;;5072972;28;20071;-72
2021/01/27 00:18:40;;;;;;;72.20;42.10;;;;;;;;;;5074239;28;20503;-72
2021/01/27 00:21:07;;;;;;;72.45;42.33;;;;;;;;;;5080405;28;20502;-73
2021/01/27 00:23:33;;;;;;;71.72;42.50;;;;;;;;;;5056902;28;20044;-72
2021/01/27 00:25:59;;;;;;;77.28;44.92;;;;;;;;;;5072878;28;20064;-73
2021/01/27 00:28:25;;;;;;;70.72;43.05;;;;;;;;;;5070737;28;20039;-72
2021/01/27 00:30:52;;;;;;;66.70;40.58;;;;;;;;;;5076979;28;20040;-73
2021/01/27 00:33:18;;;;;;;65.93;41.53;;;;;;;;;;5058263;28;20044;-73
2021/01/27 00:35:46;;;;;;;72.90;43.13;;;;;;;;;;5064034;28;20051;-73
2021/01/27 00:38:14;;;;;;;67.45;41.33;;;;;;;;;;5075284;28;20040;-73
2021/01/27 00:40:41;;;;;;;70.07;43.72;;;;;;;;;;5071280;28;20345;-72
2021/01/27 00:43:08;;;;;;;70.57;41.08;;;;;;;;;;5068568;28;20068;-72
2021/01/27 00:45:34;;;;;;;73.15;44.05;;;;;;;;;;5072577;28;20037;-72
2021/01/27 00:48:01;;;;;;;70.85;40.67;;;;;;;;;;5072979;28;20090;-73
2021/01/27 00:50:27;;;;;;;74.15;43.03;;;;;;;;;;5077125;28;20503;-72
2021/01/27 00:52:53;;;;;;;65.05;39.83;;;;;;;;;;5060446;28;20036;-72
2021/01/27 00:55:21;;;;;;;70.72;41.10;;;;;;;;;;5058361;28;20127;-72
2021/01/27 00:57:47;;;;;;;67.85;41.00;;;;;;;;;;5075219;28;20062;-73
2021/01/27 01:00:19;;;;;;;63.05;41.22;;;;;;;;;;5071626;28;20385;-71
2021/01/27 01:02:45;;;;;;;60.85;39.60;;;;;;;;;;5072614;28;20090;-72
2021/01/27 01:05:14;;;;;;;66.20;40.78;;;;;;;;;;5070749;28;20044;-73
2021/01/27 01:07:42;;;;;;;61.35;38.67;;;;;;;;;;5075626;28;20093;-73
2021/01/27 01:10:09;;;;;;;61.58;37.63;;;;;;;;;;5072346;28;20036;-72
2021/01/27 01:12:35;;;;;;;50.40;33.85;;;;;;;;;;5070358;28;20151;-72
2021/01/27 01:15:02;;;;;;;52.20;34.47;;;;;;;;;;5069700;28;20545;-72
2021/01/27 01:17:28;;;;;;;54.67;34.58;;;;;;;;;;5080448;28;20151;-72
2021/01/27 01:19:54;;;;;;;46.65;30.17;;;;;;;;;;5072350;28;20041;-72
2021/01/27 01:22:21;;;;;;;50.65;28.23;;;;;;;;;;5072763;28;20501;-72
2021/01/27 01:24:47;;;;;;;44.42;28.00;;;;;;;;;;5051554;28;20090;-72
2021/01/27 01:27:13;;;;;;;46.22;26.10;;;;;;;;;;5049902;28;20420;-72
2021/01/27 01:29:39;;;;;;;39.72;25.63;;;;;;;;;;5068856;28;20123;-72
2021/01/27 01:32:06;;;;;;;45.42;23.60;;;;;;;;;;5068593;28;20108;-72
2021/01/27 01:34:32;;;;;;;31.75;20.77;;;;;;;;;;5071787;28;20391;-72
2021/01/27 01:36:59;;;;;;;33.50;19.73;;;;;;;;;;5073047;28;20053;-72
2021/01/27 01:39:25;;;;;;;31.50;18.98;;;;;;;;;;5071176;28;20119;-72
2021/01/27 01:41:52;;;;;;;31.65;17.55;;;;;;;;;;5076183;28;20102;-72
2021/01/27 01:44:18;;;;;;;27.85;17.55;;;;;;;;;;5069946;28;20035;-72
2021/01/27 01:46:44;;;;;;;28.77;16.30;;;;;;;;;;5058220;28;20115;-72
2021/01/27 01:49:13;;;;;;;26.75;16.08;;;;;;;;;;5056625;28;20093;-73
2021/01/27 01:51:51;;;;;;;24.67;15.43;;;;;;;;;;5071686;28;20048;-72
2021/01/27 01:54:17;;;;;;;24.63;14.68;;;;;;;;;;5069772;28;20118;-72
2021/01/27 01:56:45;;;;;;;24.25;14.77;;;;;;;;;;5074645;28;20062;-72
2021/01/27 01:59:12;;;;;;;24.58;14.27;;;;;;;;;;5055657;28;20055;-72
2021/01/27 02:01:40;;;;;;;21.83;14.02;;;;;;;;;;5079473;28;20472;-72
2021/01/27 02:04:07;;;;;;;25.23;13.35;;;;;;;;;;5067983;28;20082;-72
2021/01/27 02:06:33;;;;;;;19.50;13.25;;;;;;;;;;5078911;28;20056;-72
2021/01/27 02:08:59;;;;;;;18.77;12.23;;;;;;;;;;5093067;28;20043;-72
2021/01/27 02:11:33;;;;;;;25.40;13.35;;;;;;;;;;5079086;28;20050;-72
2021/01/27 02:14:08;;;;;;;21.70;13.03;;;;;;;;;;5079469;28;20156;-72
2021/01/27 02:16:46;;;;;;;20.60;12.98;;;;;;;;;;5072852;28;20463;-72
2021/01/27 02:19:12;;;;;;;18.48;11.25;;;;;;;;;;5057922;28;20044;-73
2021/01/27 02:21:47;;;;;;;19.05;11.75;;;;;;;;;;5077801;28;20039;-73
2021/01/27 02:24:30;;;;;;;18.95;11.02;;;;;;;;;;5073877;28;20063;-72
2021/01/27 02:27:08;;;;;;;19.48;11.75;;;;;;;;;;5072313;28;20422;-72
2021/01/27 02:29:34;;;;;;;20.00;11.65;;;;;;;;;;5078422;28;20052;-72
2021/01/27 02:32:15;;;;;;;20.23;11.55;;;;;;;;;;5075460;28;20047;-72
2021/01/27 02:34:59;;;;;;;18.17;9.52;;;;;;;;;;5061209;28;20472;-72
2021/01/27 02:37:34;;;;;;;13.75;8.93;;;;;;;;;;5072555;28;20539;-72
2021/01/27 02:40:04;;;;;;;19.17;8.18;;;;;;;;;;5069314;28;20046;-72
2021/01/27 02:42:38;;;;;;;13.95;7.93;;;;;;;;;;5078529;28;20088;-72
2021/01/27 02:45:07;;;;;;;16.90;8.43;;;;;;;;;;5074765;28;20286;-72
2021/01/27 02:47:41;;;;;;;14.65;8.00;;;;;;;;;;5072637;28;20039;-72
2021/01/27 02:50:09;;;;;;;16.17;8.50;;;;;;;;;;5074494;28;20044;-72
2021/01/27 02:52:40;;;;;;;15.80;8.45;;;;;;;;;;5076251;28;20044;-73
2021/01/27 02:55:11;;;;;;;17.42;9.15;;;;;;;;;;5057405;28;20396;-72
2021/01/27 02:57:41;;;;;;;16.80;8.30;;;;;;;;;;5072128;28;20127;-72
2021/01/27 03:00:12;;;;;;;15.07;8.07;;;;;;;;;;5063454;28;20484;-72
2021/01/27 03:02:43;;;;;;;14.60;8.48;;;;;;;;;;5078261;28;20035;-73
2021/01/27 03:05:13;;;;;;;15.63;7.93;;;;;;;;;;5073362;28;20483;-73
2021/01/27 03:07:40;;;;;;;15.68;8.48;;;;;;;;;;5047020;28;20035;-72
2021/01/27 03:10:09;;;;;;;14.95;8.48;;;;;;;;;;5080934;28;20440;-72
2021/01/27 03:12:35;;;;;;;13.73;8.57;;;;;;;;;;5073071;28;20040;-72
2021/01/27 03:15:04;;;;;;;12.43;8.60;;;;;;;;;;5073165;28;20052;-72
2021/01/27 03:17:30;;;;;;;15.68;8.50;;;;;;;;;;5083197;28;20183;-72
2021/01/27 03:20:00;;;;;;;13.52;8.82;;;;;;;;;;5076385;28;20043;-72
2021/01/27 03:22:32;;;;;;;12.63;8.07;;;;;;;;;;5072157;28;20151;-72
2021/01/27 03:25:09;;;;;;;18.77;9.55;;;;;;;;;;5075620;28;20044;-72
2021/01/27 03:27:39;;;;;;;15.27;9.40;;;;;;;;;;5069645;28;20048;-72
2021/01/27 03:30:07;;;;;;;13.98;9.88;;;;;;;;;;5071566;28;20052;-72
2021/01/27 03:32:34;;;;;;;16.90;10.40;;;;;;;;;;5068966;28;20048;-72
2021/01/27 03:35:07;;;;;;;19.65;11.50;;;;;;;;;;5069789;28;21742;-72
2021/01/27 03:37:37;;;;;;;19.10;12.32;;;;;;;;;;5072120;28;20083;-73
2021/01/27 03:40:06;;;;;;;18.65;11.77;;;;;;;;;;5073701;28;20037;-72
2021/01/27 03:42:40;;;;;;;23.27;14.10;;;;;;;;;;5046579;28;20052;-73
2021/01/27 03:45:08;;;;;;;24.10;14.45;;;;;;;;;;5063602;28;20083;-72
2021/01/27 03:47:48;;;;;;;23.17;16.20;;;;;;;;;;5068322;28;20048;-72
2021/01/27 03:50:17;;;;;;;22.63;16.08;;;;;;;;;;5058996;28;20041;-72
2021/01/27 03:52:51;;;;;;;25.20;15.35;;;;;;;;;;5075050;28;20178;-72
2021/01/27 03:55:17;;;;;;;;;;;;;;;;;;5073786;28;20042;-72
2021/01/27 03:57:47;;;;;;;26.73;17.98;;;;;;;;;;5072678;28;19928;-72
2021/01/27 04:00:14;;;;;;;24.63;17.15;;;;;;;;;;5053909;28;20040;-72
2021/01/27 04:02:40;;;;;;;28.67;18.15;;;;;;;;;;5071300;28;20476;-72
2021/01/27 04:05:07;;;;;;;31.02;19.98;;;;;;;;;;5071313;28;20655;-72
2021/01/27 04:07:33;;;;;;;28.63;19.05;;;;;;;;;;5072974;28;20045;-72
2021/01/27 04:10:00;;;;;;;33.75;22.15;;;;;;;;;;5062419;28;20040;-73
2021/01/27 04:12:26;;;;;;;33.30;21.50;;;;;;;;;;5077298;28;20051;-72
2021/01/27 04:14:52;;;;;;;33.70;23.98;;;;;;;;;;5069150;28;20048;-72
2021/01/27 04:17:26;;;;;;;36.78;23.50;;;;;;;;;;5058260;28;20090;-72
2021/01/27 04:19:52;;;;;;;36.15;22.77;;;;;;;;;;5074012;28;20044;-72
2021/01/27 04:22:18;;;;;;;38.58;22.95;;;;;;;;;;5076272;28;20040;-72
2021/01/27 04:24:45;;;;;;;44.15;26.95;;;;;;;;;;5071412;28;20368;-73
2021/01/27 04:27:11;;;;;;;38.22;26.02;;;;;;;;;;5070717;28;20044;-73
2021/01/27 04:29:38;;;;;;;44.28;27.95;;;;;;;;;;5074745;28;20040;-73
2021/01/27 04:32:04;;;;;;;40.83;26.88;;;;;;;;;;5071672;28;20032;-73
2021/01/27 04:34:30;;;;;;;38.65;27.85;;;;;;;;;;5075174;28;20071;-72
2021/01/27 04:36:56;;;;;;;38.00;25.95;;;;;;;;;;5069550;28;20036;-73
2021/01/27 04:39:23;;;;;;;42.72;26.02;;;;;;;;;;5076063;28;20044;-73
2021/01/27 04:41:50;;;;;;;37.03;25.40;;;;;;;;;;5070048;28;20045;-72
2021/01/27 04:44:16;;;;;;;48.63;27.88;;;;;;;;;;5068649;28;20131;-72
2021/01/27 04:46:54;;;;;;;48.53;28.55;;;;;;;;;;5074366;28;20068;-73
2021/01/27 04:49:21;;;;;;;39.58;25.15;;;;;;;;;;5074753;28;20048;-72
2021/01/27 04:51:51;;;;;;;42.70;28.83;;;;;;;;;;5074585;28;20081;-72
2021/01/27 04:54:28;;;;;;;40.90;26.10;;;;;;;;;;5072836;28;20147;-73
2021/01/27 04:57:04;;;;;;;43.30;25.73;;;;;;;;;;5058518;28;20036;-72
2021/01/27 04:59:42;;;;;;;45.25;27.35;;;;;;;;;;5069362;28;20151;-72
2021/01/27 05:02:18;;;;;;;43.00;26.63;;;;;;;;;;5073332;28;20041;-73
2021/01/27 05:05:00;;;;;;;48.03;27.58;;;;;;;;;;5068312;28;20045;-73
2021/01/27 05:07:37;;;;;;;38.55;26.23;;;;;;;;;;5073565;28;20057;-72
2021/01/27 05:10:05;;;;;;;39.10;24.63;;;;;;;;;;5073709;28;20369;-72
2021/01/27 05:12:37;;;;;;;38.85;25.02;;;;;;;;;;5054418;28;21559;-73
2021/01/27 05:15:05;;;;;;;36.53;22.55;;;;;;;;;;5074348;28;20043;-72
2021/01/27 05:17:31;;;;;;;34.65;22.92;;;;;;;;;;5070205;28;20048;-73
2021/01/27 05:19:57;;;;;;;36.00;23.17;;;;;;;;;;5076072;28;20047;-73
2021/01/27 05:22:24;;;;;;;37.83;23.92;;;;;;;;;;5043653;28;20045;-73
2021/01/27 05:24:50;;;;;;;43.13;24.75;;;;;;;;;;5072781;28;20119;-73
2021/01/27 05:27:20;;;;;;;38.15;25.88;;;;;;;;;;5074751;28;20043;-73
2021/01/27 05:29:53;;;;;;;43.03;25.60;;;;;;;;;;5070178;28;20127;-73
2021/01/27 05:32:20;;;;;;;46.58;25.95;;;;;;;;;;5055296;28;20036;-73
2021/01/27 05:34:51;;;;;;;44.03;26.15;;;;;;;;;;5071045;28;20040;-73
2021/01/27 05:37:31;;;;;;;46.65;26.00;;;;;;;;;;5074033;28;20109;-73
2021/01/27 05:40:06;;;;;;;43.97;25.75;;;;;;;;;;5068848;28;20128;-73
2021/01/27 05:42:33;;;;;;;45.67;25.45;;;;;;;;;;5074912;28;20080;-72
2021/01/27 05:45:19;;;;;;;50.22;27.38;;;;;;;;;;5079789;28;20445;-73
2021/01/27 05:47:46;;;;;;;50.40;26.80;;;;;;;;;;5074773;28;20047;-73
2021/01/27 05:50:21;;;;;;;49.08;27.42;;;;;;;;;;5072397;28;20068;-74
2021/01/27 05:52:47;;;;;;;52.67;26.90;;;;;;;;;;5077292;28;20066;-73
2021/01/27 05:55:14;;;;;;;48.70;27.13;;;;;;;;;;5077198;28;20043;-73
2021/01/27 05:57:41;;;;;;;49.10;26.75;;;;;;;;;;5073609;28;20044;-73
2021/01/27 06:00:09;;;;;;;47.72;27.98;;;;;;;;;;5073600;28;20055;-73
2021/01/27 06:02:40;;;;;;;51.00;27.65;;;;;;;;;;5078769;28;20044;-73
2021/01/27 06:05:08;;;;;;;54.22;27.23;;;;;;;;;;5075967;28;20450;-73
2021/01/27 06:07:34;;;;;;;50.22;26.83;;;;;;;;;;5071796;28;20047;-73
2021/01/27 06:10:16;;;;;;;54.92;26.98;;;;;;;;;;5071836;28;20067;-73
2021/01/27 06:12:42;;;;;;;52.80;26.80;;;;;;;;;;5068476;28;20040;-73
2021/01/27 06:15:10;;;;;;;49.78;27.52;;;;;;;;;;5076658;28;20475;-73
2021/01/27 06:17:45;;;;;;;48.95;26.38;;;;;;;;;;5059774;28;20131;-73
2021/01/27 06:20:17;;;;;;;55.78;27.75;;;;;;;;;;5073848;28;20833;-73
2021/01/27 06:23:06;;;;;;;54.78;28.27;;;;;;;;;;5075705;28;20040;-73
2021/01/27 06:25:45;;;;;;;58.88;28.13;;;;;;;;;;5053847;28;20044;-73
2021/01/27 06:28:13;;;;;;;54.47;28.48;;;;;;;;;;5057684;28;20051;-73
2021/01/27 06:30:49;;;;;;;50.70;28.02;;;;;;;;;;5074619;28;20089;-73
2021/01/27 06:33:28;;;;;;;51.08;28.23;;;;;;;;;;5075862;28;20403;-73
2021/01/27 06:36:03;;;;;;;51.70;27.25;;;;;;;;;;5074563;28;20082;-73
2021/01/27 06:38:30;;;;;;;52.03;28.67;;;;;;;;;;5074095;28;20048;-73
2021/01/27 06:41:00;;;;;;;49.95;26.75;;;;;;;;;;5075675;28;20044;-73
2021/01/27 06:43:34;;;;;;;50.60;29.35;;;;;;;;;;5076229;28;20094;-73
2021/01/27 06:46:05;;;;;;;51.10;26.95;;;;;;;;;;5075493;28;20119;-73
2021/01/27 06:48:43;;;;;;;53.08;27.35;;;;;;;;;;5073657;28;20133;-73
2021/01/27 06:51:20;;;;;;;50.22;26.50;;;;;;;;;;5056395;28;20040;-73
2021/01/27 06:54:04;;;;;;;46.88;25.58;;;;;;;;;;5074756;28;20071;-73
2021/01/27 06:56:43;;;;;;;52.33;26.33;;;;;;;;;;5077180;28;20049;-73
2021/01/27 06:59:23;;;;;;;53.03;26.55;;;;;;;;;;5073880;28;20458;-73
2021/01/27 07:01:55;;;;;;;52.17;26.15;;;;;;;;;;5075257;28;20451;-73
2021/01/27 07:04:27;;;;;;;48.65;25.83;;;;;;;;;;5078195;28;20075;-73
2021/01/27 07:07:05;;;;;;;53.60;26.35;;;;;;;;;;5082598;28;20032;-73
2021/01/27 07:09:37;;;;;;;49.28;24.98;;;;;;;;;;5047243;28;20058;-72
2021/01/27 07:12:10;;;;;;;59.15;26.27;;;;;;;;;;5076976;28;20037;-73
2021/01/27 07:14:42;;;;;;;47.20;24.88;;;;;;;;;;5084316;28;20111;-73
2021/01/27 07:17:19;;;;;;;55.65;25.88;;;;;;;;;;5079032;28;20404;-73
2021/01/27 07:19:46;;;;;;;54.10;27.08;;;;;;;;;;5079407;28;20377;-73
2021/01/27 07:22:22;;;;;;;49.22;25.73;;;;;;;;;;5085959;28;20039;-75
2021/01/27 07:25:01;;;;;;;51.47;25.15;;;;;;;;;;5078880;28;20082;-75
2021/01/27 07:27:30;;;;;;;43.13;23.88;;;;;;;;;;5062122;28;20071;-75
2021/01/27 07:30:07;;;;;;;43.42;24.52;;;;;;;;;;5078269;28;20479;-75
2021/01/27 07:32:40;;;;;;;47.53;23.83;;;;;;;;;;5058422;28;20399;-87
2021/01/27 07:35:12;;;;;;;48.23;24.27;;;;;;;;;;5077645;28;20082;-75
2021/01/27 07:37:40;;;;;;;45.67;22.42;;;;;;;;;;5054597;28;20299;-86
2021/01/27 07:40:21;;;;;;;44.33;23.60;;;;;;;;;;5082872;28;20482;-88
2021/01/27 07:42:58;;;;;;;39.22;22.05;;;;;;;;;;5084089;28;20090;-87
2021/01/27 07:45:26;;;;;;;44.13;23.60;;;;;;;;;;5088700;28;20047;-94
2021/01/27 07:47:56;;;;;;;46.42;24.08;;;;;;;;;;5089607;28;20127;-90
2021/01/27 07:50:23;;;;;;;42.58;23.17;;;;;;;;;;5089209;28;20090;-94
2021/01/27 07:52:53;;;;;;;43.88;21.75;;;;;;;;;;5088909;28;20387;-89
2021/01/27 07:55:23;;;;;;;52.10;23.48;;;;;;;;;;5063597;28;20104;-83
2021/01/27 07:57:57;;;;;;;47.88;22.98;;;;;;;;;;5086670;28;20127;-90
2021/01/27 08:00:32;;;;;;;41.65;22.27;;;;;;;;;;5092670;28;20043;-75
2021/01/27 08:03:08;;;;;;;39.58;22.27;;;;;;;;;;5076272;28;20106;-74
2021/01/27 08:05:37;;;;;;;40.88;22.92;;;;;;;;;;5063578;28;20115;-74
2021/01/27 08:08:06;;;;;;;42.22;21.27;;;;;;;;;;5090762;28;20445;-74
2021/01/27 08:10:34;;;;;;;39.83;21.30;;;;;;;;;;5091398;28;20043;-74
2021/01/27 08:13:02;;;;;;;41.53;22.02;;;;;;;;;;5091627;28;20036;-81
2021/01/27 08:15:45;;;;;;;43.60;21.45;;;;;;;;;;5071525;28;20119;-75
2021/01/27 08:18:17;;;;;;;43.03;21.65;;;;;;;;;;5088317;28;20047;-75
2021/01/27 08:20:45;;;;;;;42.95;21.40;;;;;;;;;;5089323;28;20118;-75
2021/01/27 08:23:31;;;;;;;42.30;21.17;;;;;;;;;;5089964;28;20040;-75
2021/01/27 08:26:00;;;;;;;34.53;19.00;;;;;;;;;;5089826;28;20040;-75
2021/01/27 08:28:49;;;;;;;37.72;21.02;;;;;;;;;;5090329;28;20083;-75
2021/01/27 08:31:16;;;;;;;35.95;20.10;;;;;;;;;;5068426;28;20036;-75
2021/01/27 08:33:53;;;;;;;36.45;19.88;;;;;;;;;;5090098;28;20044;-72
2021/01/27 08:36:28;;;;;;;36.28;19.60;;;;;;;;;;5088521;28;20044;-73
2021/01/27 08:38:55;;;;;;;35.97;19.65;;;;;;;;;;5088060;28;20036;-71
2021/01/27 08:41:43;;;;;;;36.53;19.90;;;;;;;;;;5087605;28;20048;-71
2021/01/27 08:44:11;;;;;;;35.72;18.48;;;;;;;;;;5052552;28;20041;-71
2021/01/27 08:46:42;;;;;;;31.05;18.30;;;;;;;;;;5068914;28;20483;-71
2021/01/27 08:49:08;;;;;;;42.40;20.08;;;;;;;;;;5068240;28;20071;-71
2021/01/27 08:51:41;;;;;;;38.92;20.95;;;;;;;;;;5067991;28;20412;-71
2021/01/27 08:54:25;;;;;;;39.88;21.10;;;;;;;;;;5071172;28;20126;-71
2021/01/27 08:57:10;;;;;;;34.25;19.40;;;;;;;;;;5070828;28;20045;-71
2021/01/27 08:59:50;;;;;;;43.08;21.20;;;;;;;;;;5071545;28;20075;-71
2021/01/27 09:02:35;;;;;;;44.30;21.08;;;;;;;;;;5070082;28;20707;-71
2021/01/27 09:05:03;;;;;;;40.00;20.98;;;;;;;;;;5070082;28;20052;-71
2021/01/27 09:07:29;;;;;;;39.72;21.95;;;;;;;;;;5071018;28;20050;-73
2021/01/27 09:09:56;;;;;;;42.60;22.35;;;;;;;;;;5071134;28;20040;-72
2021/01/27 09:12:27;;;;;;;36.63;20.48;;;;;;;;;;5069331;28;20075;-78
2021/01/27 09:14:53;;;;;;;45.58;23.40;;;;;;;;;;5069876;28;20045;-74
2021/01/27 09:17:20;;;;;;;41.28;22.13;;;;;;;;;;5065468;28;20059;-74
2021/01/27 09:19:46;;;;;;;39.97;21.83;;;;;;;;;;5070243;28;20041;-74
2021/01/27 09:22:14;;;;;;;47.33;23.23;;;;;;;;;;5070030;28;20373;-74
2021/01/27 09:24:48;;;;;;;45.33;21.80;;;;;;;;;;5063590;28;20103;-73
2021/01/27 09:27:14;;;;;;;;;;;;;;;;;;5056001;28;20048;-73
2021/01/27 09:29:41;;;;;;;49.03;24.67;;;;;;;;;;5070185;28;20342;-73
2021/01/27 09:32:14;;;;;;;51.58;24.13;;;;;;;;;;5064173;28;20048;-73
2021/01/27 09:34:41;;;;;;;53.72;25.20;;;;;;;;;;5060624;28;20498;-73
2021/01/27 09:37:12;;;;;;;49.03;22.83;;;;;;;;;;5064968;28;20085;-73
2021/01/27 09:39:40;;;;;;;47.72;22.45;;;;;;;;;;5065817;28;20098;-73
2021/01/27 09:42:17;;;;;;;44.05;21.80;;;;;;;;;;5079253;28;20131;-73
2021/01/27 09:44:47;;;;;;;45.03;21.60;;;;;;;;;;5077758;28;20048;-73
2021/01/27 09:47:14;;;;;;;51.08;22.58;;;;;;;;;;5088447;28;20501;-74
2021/01/27 09:49:45;;;;;;;55.47;23.65;;;;;;;;;;5090776;28;20032;-73
2021/01/27 09:52:13;;;;;;;48.97;21.83;;;;;;;;;;5087049;28;20044;-73
2021/01/27 09:54:42;;;;;;;48.35;22.17;;;;;;;;;;5089418;28;20089;-73
2021/01/27 09:57:10;;;;;;;46.90;23.48;;;;;;;;;;5088848;28;20400;-73
2021/01/27 09:59:38;;;;;;;44.13;20.05;;;;;;;;;;5080643;28;20040;-74
2021/01/27 10:02:05;;;;;;;45.97;20.40;;;;;;;;;;5078134;28;20055;-74
2021/01/27 10:04:33;;;;;;;46.83;20.60;;;;;;;;;;5069125;28;20068;-74
2021/01/27 10:07:11;;;;;;;36.75;18.73;;;;;;;;;;5088753;28;20345;-76
2021/01/27 10:09:41;;;;;;;38.45;18.52;;;;;;;;;;5090781;28;20060;-74
2021/01/27 10:12:21;;;;;;;35.72;17.02;;;;;;;;;;5090827;28;20040;-74
2021/01/27 10:14:48;;;;;;;37.20;18.13;;;;;;;;;;5089237;28;20044;-75
2021/01/27 10:17:14;;;;;;;45.17;18.83;;;;;;;;;;5086659;28;20040;-75
2021/01/27 10:19:49;;;;;;;38.05;17.50;;;;;;;;;;5090677;28;20071;-75
2021/01/27 10:22:25;;;;;;;46.47;19.58;;;;;;;;;;5089672;28;20067;-75
2021/01/27 10:24:53;;;;;;;42.90;19.33;;;;;;;;;;5090487;28;20139;-74
2021/01/27 10:27:23;;;;;;;48.83;19.70;;;;;;;;;;5072526;28;20040;-74
2021/01/27 10:29:51;;;;;;;48.28;20.40;;;;;;;;;;5074666;28;20068;-75
2021/01/27 10:32:20;;;;;;;57.90;21.17;;;;;;;;;;5093242;28;20043;-75
2021/01/27 10:34:48;;;;;;;58.55;22.92;;;;;;;;;;5094163;28;20407;-74
2021/01/27 10:37:28;;;;;;;58.13;22.02;;;;;;;;;;5093273;28;20373;-75
2021/01/27 10:40:10;;;;;;;61.95;23.35;;;;;;;;;;5093976;28;20048;-75
2021/01/27 10:42:38;;;;;;;72.05;24.33;;;;;;;;;;5092848;28;20048;-75
2021/01/27 10:45:14;;;;;;;82.07;25.52;;;;;;;;;;5093842;28;20093;-75
2021/01/27 10:47:42;;;;;;;70.30;24.65;;;;;;;;;;5092989;28;20097;-74
2021/01/27 10:50:10;;;;;;;70.53;26.27;;;;;;;;;;5075025;28;20081;-75
2021/01/27 10:52:36;;;;;;;82.78;26.35;;;;;;;;;;5093885;28;20044;-75
2021/01/27 10:55:07;;;;;;;75.18;25.40;;;;;;;;;;5093735;28;20044;-80
2021/01/27 10:57:33;;;;;;;83.10;28.50;;;;;;;;;;5092722;28;20235;-80
2021/01/27 11:00:00;;;;;;;101.47;29.40;;;;;;;;;;5092934;28;20104;-75
2021/01/27 11:02:28;;;;;;;99.38;29.88;;;;;;;;;;5084705;28;20052;-75
2021/01/27 11:04:54;;;;;;;91.43;28.00;;;;;;;;;;5089734;28;20066;-74
2021/01/27 11:07:21;;;;;;;119.50;31.25;;;;;;;;;;5093390;28;20096;-74
2021/01/27 11:09:47;;;;;;;85.03;27.40;;;;;;;;;;5085254;28;20189;-74
2021/01/27 11:12:14;;;;;;;92.47;31.20;;;;;;;;;;5091749;28;20040;-74
2021/01/27 11:14:40;;;;;;;81.45;28.58;;;;;;;;;;5093378;28;20044;-75
2021/01/27 11:17:06;;;;;;;85.53;29.40;;;;;;;;;;5093317;28;20043;-74
2021/01/27 11:19:32;;;;;;;95.82;31.58;;;;;;;;;;5080317;28;20040;-74
2021/01/27 11:21:59;;;;;;;105.00;31.60;;;;;;;;;;5091995;28;20044;-74
2021/01/27 11:24:25;;;;;;;93.97;32.38;;;;;;;;;;5093196;28;20044;-78
2021/01/27 11:26:51;;;;;;;112.47;33.85;;;;;;;;;;5093013;28;20070;-81
2021/01/27 11:29:18;;;;;;;102.45;33.05;;;;;;;;;;5075401;28;20040;-79
2021/01/27 11:31:44;;;;;;;100.80;30.85;;;;;;;;;;5054579;28;20131;-79
2021/01/27 11:34:10;;;;;;;99.30;32.08;;;;;;;;;;5073611;28;20119;-80
2021/01/27 11:36:37;;;;;;;109.70;33.80;;;;;;;;;;5093535;28;20093;-75
2021/01/27 11:39:04;;;;;;;137.63;36.88;;;;;;;;;;5092401;28;20072;-75
2021/01/27 11:41:31;;;;;;;125.80;36.08;;;;;;;;;;5092381;28;20048;-74
2021/01/27 11:43:57;;;;;;;120.93;34.25;;;;;;;;;;5093027;28;20043;-74
2021/01/27 11:46:24;;;;;;;150.20;37.83;;;;;;;;;;5092555;28;20157;-74
2021/01/27 11:48:50;;;;;;;144.63;38.88;;;;;;;;;;5093182;28;20095;-74
2021/01/27 11:51:17;;;;;;;164.45;41.78;;;;;;;;;;5096955;28;20085;-74
2021/01/27 11:53:43;;;;;;;145.23;39.33;;;;;;;;;;5092243;28;20122;-74
2021/01/27 11:56:10;;;;;;;191.00;42.88;;;;;;;;;;5092787;28;20055;-72
2021/01/27 11:58:36;;;;;;;186.13;43.38;;;;;;;;;;5092843;28;20059;-80
2021/01/27 12:01:04;;;;;;;152.88;41.38;;;;;;;;;;5092352;28;20127;-79
2021/01/27 12:03:31;;;;;;;142.43;40.05;;;;;;;;;;5074252;28;20036;-72
2021/01/27 12:05:57;;;;;;;133.95;39.47;;;;;;;;;;5093155;28;20055;-79
2021/01/27 12:08:24;;;;;;;156.52;40.92;;;;;;;;;;5092028;28;20439;-81
2021/01/27 12:10:50;;;;;;;148.93;40.38;;;;;;;;;;5074037;28;20503;-77
2021/01/27 12:13:17;;;;;;;169.95;42.40;;;;;;;;;;5055509;28;20503;-81
2021/01/27 12:15:44;;;;;;;138.77;38.35;;;;;;;;;;5082739;28;20100;-78
2021/01/27 12:18:11;;;;;;;145.32;39.38;;;;;;;;;;5086481;28;20115;-79
2021/01/27 12:20:38;;;;;;;163.88;41.15;;;;;;;;;;5081012;28;20035;-76
2021/01/27 12:23:05;;;;;;;193.15;45.15;;;;;;;;;;5086760;28;20456;-83
2021/01/27 12:25:31;;;;;;;180.95;42.20;;;;;;;;;;5083524;28;20646;-79
2021/01/27 12:27:58;;;;;;;157.45;41.05;;;;;;;;;;5085016;28;20043;-78
2021/01/27 12:30:24;;;;;;;147.52;40.22;;;;;;;;;;5083709;28;20084;-76
2021/01/27 12:32:50;;;;;;;143.38;40.10;;;;;;;;;;5088349;28;20039;-77
2021/01/27 12:35:17;;;;;;;169.77;42.45;;;;;;;;;;5065725;28;20043;-78
2021/01/27 12:37:44;;;;;;;175.25;42.65;;;;;;;;;;5090603;28;20047;-78
2021/01/27 12:40:12;;;;;;;171.82;43.25;;;;;;;;;;5091124;28;20036;-76
2021/01/27 12:42:39;;;;;;;170.05;43.25;;;;;;;;;;5068794;28;20048;-74
2021/01/27 12:45:06;;;;;;;172.10;42.30;;;;;;;;;;5066695;28;20040;-75
2021/01/27 12:47:33;;;;;;;183.95;43.28;;;;;;;;;;5070455;28;20094;-73
2021/01/27 12:49:59;;;;;;;158.02;41.53;;;;;;;;;;5070086;28;20529;-80
2021/01/27 12:52:25;;;;;;;182.82;41.45;;;;;;;;;;5069610;28;20041;-80
2021/01/27 12:54:52;;;;;;;173.75;40.97;;;;;;;;;;5070678;28;20059;-77
2021/01/27 12:57:18;;;;;;;140.35;38.33;;;;;;;;;;5070030;28;20032;-72
2021/01/27 12:59:44;;;;;;;157.15;42.83;;;;;;;;;;5070283;28;20041;-78
2021/01/27 13:02:11;;;;;;;128.40;38.28;;;;;;;;;;5065618;28;20064;-81
2021/01/27 13:04:37;;;;;;;110.32;37.67;;;;;;;;;;5063834;28;20124;-75
2021/01/27 13:07:04;;;;;;;113.25;38.17;;;;;;;;;;5064778;28;20044;-74
2021/01/27 13:09:30;;;;;;;133.82;40.10;;;;;;;;;;5061336;28;20048;-76
2021/01/27 13:11:56;;;;;;;114.65;36.88;;;;;;;;;;5055082;28;20040;-74
2021/01/27 13:14:23;;;;;;;112.30;37.05;;;;;;;;;;5063227;28;20058;-74
2021/01/27 13:16:50;;;;;;;111.70;36.72;;;;;;;;;;5056825;28;20124;-74
2021/01/27 13:19:17;;;;;;;132.77;39.10;;;;;;;;;;5069105;28;20037;-80
2021/01/27 13:21:43;;;;;;;107.32;34.90;;;;;;;;;;5057657;28;20069;-76
2021/01/27 13:24:10;;;;;;;98.43;34.00;;;;;;;;;;5068252;28;20040;-80
2021/01/27 13:26:37;;;;;;;116.50;34.50;;;;;;;;;;5065752;28;20033;-78
2021/01/27 13:29:04;;;;;;;94.63;32.83;;;;;;;;;;5067250;28;20047;-79
2021/01/27 13:31:30;;;;;;;76.05;28.48;;;;;;;;;;5069945;28;20147;-78
2021/01/27 13:33:57;;;;;;;69.65;28.90;;;;;;;;;;5068205;28;20064;-79
2021/01/27 13:36:23;;;;;;;62.97;27.05;;;;;;;;;;5063285;28;20064;-80
2021/01/27 13:38:50;;;;;;;54.90;23.65;;;;;;;;;;5069648;28;20053;-76
2021/01/27 13:41:16;;;;;;;51.90;22.75;;;;;;;;;;5060600;28;20033;-76
2021/01/27 13:43:43;;;;;;;70.25;26.92;;;;;;;;;;5085576;28;20402;-76
2021/01/27 13:46:09;;;;;;;49.58;22.17;;;;;;;;;;5068827;28;20032;-78
2021/01/27 13:48:36;;;;;;;40.25;19.33;;;;;;;;;;5089761;28;20123;-78
2021/01/27 13:51:02;;;;;;;38.30;18.65;;;;;;;;;;5071447;28;20127;-77
2021/01/27 13:53:28;;;;;;;36.45;18.65;;;;;;;;;;5085935;28;20060;-80
2021/01/27 13:55:55;;;;;;;39.60;19.98;;;;;;;;;;5069397;28;20044;-78
2021/01/27 13:58:21;;;;;;;39.63;19.55;;;;;;;;;;5087848;28;20040;-78
2021/01/27 14:00:47;;;;;;;38.20;19.90;;;;;;;;;;5087921;28;20047;-76
2021/01/27 14:03:14;;;;;;;41.55;19.98;;;;;;;;;;5089194;28;20070;-74
2021/01/27 14:05:40;;;;;;;42.10;21.05;;;;;;;;;;5086044;28;20045;-73
2021/01/27 14:08:06;;;;;;;42.80;21.70;;;;;;;;;;5082592;28;20097;-76
2021/01/27 14:10:33;;;;;;;37.58;20.65;;;;;;;;;;5090138;28;20150;-80
2021/01/27 14:13:00;;;;;;;27.83;13.75;;;;;;;;;;5091803;28;20052;-78
2021/01/27 14:15:28;;;;;;;29.85;15.00;;;;;;;;;;5091298;28;20049;-78
2021/01/27 14:17:55;;;;;;;34.17;17.55;;;;;;;;;;5093991;28;20170;-83
2021/01/27 14:20:22;;;;;;;34.92;18.55;;;;;;;;;;5086545;28;20157;-81
2021/01/27 14:22:48;;;;;;;42.08;20.42;;;;;;;;;;5071809;28;20047;-80
2021/01/27 14:25:18;;;;;;;27.85;16.90;;;;;;;;;;5092415;28;20043;-79
2021/01/27 14:27:45;;;;;;;29.10;15.65;;;;;;;;;;5084795;28;20813;-83
2021/01/27 14:30:12;;;;;;;30.98;16.00;;;;;;;;;;5093741;28;20510;-78